OPA Logo
 
ASOS:
At:2021.10.27 2315 UTC
Wind:220° @ 7KT
Viz: 10 mile(s)
Sky: clear
Temp: 55 F (13 C)
DewP: 30 F (-1 C)
RH: 37%
Baro: 30.28 in.
ob: KBDN 272315Z AUTO 22007KT 10SM CLR 13/M01 A3028 RMK AO2

ASOS: KRDM
At:2021.10.27 2256 UTC
Wind:020° @ 7KT
Viz: 10 mile(s)
Sky: overcast
Temp: 55.9 F (13.3 C)
DewP: 34.0 F (1.1 C)
RH: 43%
Baro: 30.26 in.
ob: KRDM 272256Z 02007KT 10SM BKN070 OVC085 13/01 A3026 RMK AO2 SLP243 T01330011
Apache-SSL Logo

Valid HTML 4.01!

Central Oregon OPA Chapter

Calendar


Other Calendar pages

Oregon Pilots Association Events Calendar

Washington Pilots Association Events


Web page by: gem@rellim.com